sensor_id;sensor_type;location;lat;lon;timestamp;temperature;humidity
54272;DHT22;40184;53.362;5.216;2022-12-18T00:01:51;1.40;99.90
54272;DHT22;40184;53.362;5.216;2022-12-18T00:04:21;1.40;99.90
54272;DHT22;40184;53.362;5.216;2022-12-18T00:06:47;1.40;99.90
54272;DHT22;40184;53.362;5.216;2022-12-18T00:09:13;1.20;99.90
54272;DHT22;40184;53.362;5.216;2022-12-18T00:11:38;1.00;99.90
54272;DHT22;40184;53.362;5.216;2022-12-18T00:14:04;1.30;99.90
54272;DHT22;40184;53.362;5.216;2022-12-18T00:16:30;1.40;99.90
54272;DHT22;40184;53.362;5.216;2022-12-18T00:18:58;1.20;99.90
54272;DHT22;40184;53.362;5.216;2022-12-18T00:21:25;1.20;99.90
54272;DHT22;40184;53.362;5.216;2022-12-18T00:23:51;0.90;99.90
54272;DHT22;40184;53.362;5.216;2022-12-18T00:26:20;1.40;99.90
54272;DHT22;40184;53.362;5.216;2022-12-18T00:28:47;1.10;99.90
54272;DHT22;40184;53.362;5.216;2022-12-18T00:31:16;0.80;99.90
54272;DHT22;40184;53.362;5.216;2022-12-18T00:33:42;1.40;99.90
54272;DHT22;40184;53.362;5.216;2022-12-18T00:36:17;1.20;99.90
54272;DHT22;40184;53.362;5.216;2022-12-18T00:38:43;1.10;99.90
54272;DHT22;40184;53.362;5.216;2022-12-18T00:41:10;0.70;99.90
54272;DHT22;40184;53.362;5.216;2022-12-18T00:43:37;0.90;99.90
54272;DHT22;40184;53.362;5.216;2022-12-18T00:46:03;1.10;99.90
54272;DHT22;40184;53.362;5.216;2022-12-18T00:48:29;0.90;99.90
54272;DHT22;40184;53.362;5.216;2022-12-18T00:50:55;1.20;99.90
54272;DHT22;40184;53.362;5.216;2022-12-18T00:53:20;1.00;99.90
54272;DHT22;40184;53.362;5.216;2022-12-18T00:55:46;0.80;99.90
54272;DHT22;40184;53.362;5.216;2022-12-18T00:58:13;0.70;99.90
54272;DHT22;40184;53.362;5.216;2022-12-18T01:00:40;1.20;99.90
54272;DHT22;40184;53.362;5.216;2022-12-18T01:03:06;1.10;99.90
54272;DHT22;40184;53.362;5.216;2022-12-18T01:05:32;0.70;99.90
54272;DHT22;40184;53.362;5.216;2022-12-18T01:07:58;1.00;99.90
54272;DHT22;40184;53.362;5.216;2022-12-18T01:10:24;0.70;99.90
54272;DHT22;40184;53.362;5.216;2022-12-18T01:12:50;1.10;99.90
54272;DHT22;40184;53.362;5.216;2022-12-18T01:15:17;0.90;99.90
54272;DHT22;40184;53.362;5.216;2022-12-18T01:17:43;1.20;99.90
54272;DHT22;40184;53.362;5.216;2022-12-18T01:20:11;0.70;99.90
54272;DHT22;40184;53.362;5.216;2022-12-18T01:22:37;0.90;99.90
54272;DHT22;40184;53.362;5.216;2022-12-18T01:25:04;0.90;99.90
54272;DHT22;40184;53.362;5.216;2022-12-18T01:27:31;0.90;99.90
54272;DHT22;40184;53.362;5.216;2022-12-18T01:29:58;0.60;99.90
54272;DHT22;40184;53.362;5.216;2022-12-18T01:32:23;0.50;99.90
54272;DHT22;40184;53.362;5.216;2022-12-18T01:34:49;1.10;99.90
54272;DHT22;40184;53.362;5.216;2022-12-18T01:37:14;0.70;99.90
54272;DHT22;40184;53.362;5.216;2022-12-18T01:39:40;1.00;99.90
54272;DHT22;40184;53.362;5.216;2022-12-18T01:42:12;1.00;99.90
54272;DHT22;40184;53.362;5.216;2022-12-18T01:47:45;0.90;99.90
54272;DHT22;40184;53.362;5.216;2022-12-18T01:52:45;0.50;99.90
54272;DHT22;40184;53.362;5.216;2022-12-18T01:55:12;0.80;99.90
54272;DHT22;40184;53.362;5.216;2022-12-18T01:57:41;0.80;99.90
54272;DHT22;40184;53.362;5.216;2022-12-18T02:00:11;0.70;99.90
54272;DHT22;40184;53.362;5.216;2022-12-18T02:02:37;0.90;99.90
54272;DHT22;40184;53.362;5.216;2022-12-18T02:05:04;0.50;99.90
54272;DHT22;40184;53.362;5.216;2022-12-18T02:07:45;1.00;99.90
54272;DHT22;40184;53.362;5.216;2022-12-18T02:10:31;0.30;99.90
54272;DHT22;40184;53.362;5.216;2022-12-18T02:13:14;0.80;99.90
54272;DHT22;40184;53.362;5.216;2022-12-18T02:18:41;0.30;99.90
54272;DHT22;40184;53.362;5.216;2022-12-18T02:21:12;0.30;99.90
54272;DHT22;40184;53.362;5.216;2022-12-18T02:26:51;0.40;99.90
54272;DHT22;40184;53.362;5.216;2022-12-18T02:29:34;0.90;99.90
54272;DHT22;40184;53.362;5.216;2022-12-18T02:32:06;0.60;99.90
54272;DHT22;40184;53.362;5.216;2022-12-18T02:34:39;0.90;99.90
54272;DHT22;40184;53.362;5.216;2022-12-18T02:37:09;0.70;99.90
54272;DHT22;40184;53.362;5.216;2022-12-18T02:39:38;0.80;99.90
54272;DHT22;40184;53.362;5.216;2022-12-18T02:42:05;0.70;99.90
54272;DHT22;40184;53.362;5.216;2022-12-18T02:44:35;0.70;99.90
54272;DHT22;40184;53.362;5.216;2022-12-18T02:47:08;0.50;99.90
54272;DHT22;40184;53.362;5.216;2022-12-18T02:58:26;0.40;99.90
54272;DHT22;40184;53.362;5.216;2022-12-18T03:01:41;0.20;99.90
54272;DHT22;40184;53.362;5.216;2022-12-18T03:04:39;0.30;99.90
54272;DHT22;40184;53.362;5.216;2022-12-18T03:07:09;0.10;99.90
54272;DHT22;40184;53.362;5.216;2022-12-18T03:09:41;0.10;99.90
54272;DHT22;40184;53.362;5.216;2022-12-18T03:12:21;0.50;99.90
54272;DHT22;40184;53.362;5.216;2022-12-18T03:14:54;0.10;99.90
54272;DHT22;40184;53.362;5.216;2022-12-18T03:17:23;0.40;99.90
54272;DHT22;40184;53.362;5.216;2022-12-18T03:19:51;0.50;99.90
54272;DHT22;40184;53.362;5.216;2022-12-18T03:22:18;0.10;99.90
54272;DHT22;40184;53.362;5.216;2022-12-18T03:24:46;0.40;99.90
54272;DHT22;40184;53.362;5.216;2022-12-18T03:27:18;0.10;99.90
54272;DHT22;40184;53.362;5.216;2022-12-18T03:35:32;0.10;99.90
54272;DHT22;40184;53.362;5.216;2022-12-18T03:37:59;0.60;99.90
54272;DHT22;40184;53.362;5.216;2022-12-18T03:40:31;0.70;99.90
54272;DHT22;40184;53.362;5.216;2022-12-18T03:43:14;0.70;99.90
54272;DHT22;40184;53.362;5.216;2022-12-18T03:45:48;0.10;99.90
54272;DHT22;40184;53.362;5.216;2022-12-18T03:48:38;0.70;99.90
54272;DHT22;40184;53.362;5.216;2022-12-18T03:51:24;0.40;99.90
54272;DHT22;40184;53.362;5.216;2022-12-18T03:54:02;0.40;99.90
54272;DHT22;40184;53.362;5.216;2022-12-18T03:56:35;0.20;99.90
54272;DHT22;40184;53.362;5.216;2022-12-18T03:59:03;0.00;99.90
54272;DHT22;40184;53.362;5.216;2022-12-18T04:01:35;0.10;99.90
54272;DHT22;40184;53.362;5.216;2022-12-18T04:04:02;0.50;99.90
54272;DHT22;40184;53.362;5.216;2022-12-18T04:06:29;0.20;99.90
54272;DHT22;40184;53.362;5.216;2022-12-18T04:08:57;-0.20;99.90
54272;DHT22;40184;53.362;5.216;2022-12-18T04:11:23;0.50;99.90
54272;DHT22;40184;53.362;5.216;2022-12-18T04:13:48;0.20;99.90
54272;DHT22;40184;53.362;5.216;2022-12-18T04:16:14;0.20;99.90
54272;DHT22;40184;53.362;5.216;2022-12-18T04:18:40;0.20;99.90
54272;DHT22;40184;53.362;5.216;2022-12-18T04:21:05;0.10;99.90
54272;DHT22;40184;53.362;5.216;2022-12-18T04:23:31;0.40;99.90
54272;DHT22;40184;53.362;5.216;2022-12-18T04:25:57;0.40;99.90
54272;DHT22;40184;53.362;5.216;2022-12-18T04:28:22;0.30;99.90
54272;DHT22;40184;53.362;5.216;2022-12-18T04:30:48;0.30;99.90
54272;DHT22;40184;53.362;5.216;2022-12-18T04:33:14;0.50;99.90
54272;DHT22;40184;53.362;5.216;2022-12-18T04:35:42;0.50;99.90
54272;DHT22;40184;53.362;5.216;2022-12-18T04:38:09;-0.10;99.90
54272;DHT22;40184;53.362;5.216;2022-12-18T04:40:36;-0.10;99.90
54272;DHT22;40184;53.362;5.216;2022-12-18T04:43:02;0.40;99.90
54272;DHT22;40184;53.362;5.216;2022-12-18T04:45:29;0.40;99.90
54272;DHT22;40184;53.362;5.216;2022-12-18T04:48:00;0.50;99.90
54272;DHT22;40184;53.362;5.216;2022-12-18T04:50:25;-0.20;99.90
54272;DHT22;40184;53.362;5.216;2022-12-18T04:52:51;-0.10;99.90
54272;DHT22;40184;53.362;5.216;2022-12-18T04:55:17;0.50;99.90
54272;DHT22;40184;53.362;5.216;2022-12-18T04:57:43;0.50;99.90
54272;DHT22;40184;53.362;5.216;2022-12-18T05:00:09;0.50;99.90
54272;DHT22;40184;53.362;5.216;2022-12-18T05:02:35;0.20;99.90
54272;DHT22;40184;53.362;5.216;2022-12-18T05:05:00;0.50;99.90
54272;DHT22;40184;53.362;5.216;2022-12-18T05:07:26;-0.10;99.90
54272;DHT22;40184;53.362;5.216;2022-12-18T05:09:52;0.20;99.90
54272;DHT22;40184;53.362;5.216;2022-12-18T05:12:17;0.60;99.90
54272;DHT22;40184;53.362;5.216;2022-12-18T05:14:43;0.50;99.90
54272;DHT22;40184;53.362;5.216;2022-12-18T05:17:08;0.20;99.90
54272;DHT22;40184;53.362;5.216;2022-12-18T05:19:34;0.10;99.90
54272;DHT22;40184;53.362;5.216;2022-12-18T05:22:00;0.50;99.90
54272;DHT22;40184;53.362;5.216;2022-12-18T05:24:26;0.30;99.90
54272;DHT22;40184;53.362;5.216;2022-12-18T05:26:52;0.60;99.90
54272;DHT22;40184;53.362;5.216;2022-12-18T05:29:18;0.50;99.90
54272;DHT22;40184;53.362;5.216;2022-12-18T05:31:43;0.30;99.90
54272;DHT22;40184;53.362;5.216;2022-12-18T05:34:10;-0.10;99.90
54272;DHT22;40184;53.362;5.216;2022-12-18T05:36:35;0.00;99.90
54272;DHT22;40184;53.362;5.216;2022-12-18T05:39:01;0.40;99.90
54272;DHT22;40184;53.362;5.216;2022-12-18T05:41:27;-0.10;99.90
54272;DHT22;40184;53.362;5.216;2022-12-18T05:43:54;0.20;99.90
54272;DHT22;40184;53.362;5.216;2022-12-18T05:46:20;0.00;99.90
54272;DHT22;40184;53.362;5.216;2022-12-18T05:48:46;0.00;99.90
54272;DHT22;40184;53.362;5.216;2022-12-18T05:51:14;0.10;99.90
54272;DHT22;40184;53.362;5.216;2022-12-18T05:53:40;0.40;99.90
54272;DHT22;40184;53.362;5.216;2022-12-18T05:56:09;0.00;99.90
54272;DHT22;40184;53.362;5.216;2022-12-18T05:58:35;0.50;99.90
54272;DHT22;40184;53.362;5.216;2022-12-18T06:01:09;0.30;99.90
54272;DHT22;40184;53.362;5.216;2022-12-18T06:03:35;0.40;99.90
54272;DHT22;40184;53.362;5.216;2022-12-18T06:06:01;0.20;99.90
54272;DHT22;40184;53.362;5.216;2022-12-18T06:08:27;0.50;99.90
54272;DHT22;40184;53.362;5.216;2022-12-18T06:10:52;0.00;99.90
54272;DHT22;40184;53.362;5.216;2022-12-18T06:13:19;0.30;99.90
54272;DHT22;40184;53.362;5.216;2022-12-18T06:15:45;0.00;99.90
54272;DHT22;40184;53.362;5.216;2022-12-18T06:18:11;0.00;99.90
54272;DHT22;40184;53.362;5.216;2022-12-18T06:20:37;0.10;99.90
54272;DHT22;40184;53.362;5.216;2022-12-18T06:23:05;-0.10;99.90
54272;DHT22;40184;53.362;5.216;2022-12-18T06:25:31;0.50;99.90
54272;DHT22;40184;53.362;5.216;2022-12-18T06:27:58;-0.10;99.90
54272;DHT22;40184;53.362;5.216;2022-12-18T06:30:24;-0.10;99.90
54272;DHT22;40184;53.362;5.216;2022-12-18T06:32:49;0.30;99.90
54272;DHT22;40184;53.362;5.216;2022-12-18T06:35:15;-0.10;99.90
54272;DHT22;40184;53.362;5.216;2022-12-18T06:37:41;0.50;99.90
54272;DHT22;40184;53.362;5.216;2022-12-18T06:40:07;0.00;99.90
54272;DHT22;40184;53.362;5.216;2022-12-18T06:42:33;0.20;99.90
54272;DHT22;40184;53.362;5.216;2022-12-18T06:44:58;0.00;99.90
54272;DHT22;40184;53.362;5.216;2022-12-18T06:47:24;0.30;99.90
54272;DHT22;40184;53.362;5.216;2022-12-18T06:49:50;0.50;99.90
54272;DHT22;40184;53.362;5.216;2022-12-18T06:52:15;0.50;99.90
54272;DHT22;40184;53.362;5.216;2022-12-18T06:54:41;-0.20;99.90
54272;DHT22;40184;53.362;5.216;2022-12-18T06:57:06;0.20;99.90
54272;DHT22;40184;53.362;5.216;2022-12-18T06:59:32;-0.30;99.90
54272;DHT22;40184;53.362;5.216;2022-12-18T07:01:58;0.30;99.90
54272;DHT22;40184;53.362;5.216;2022-12-18T07:04:28;-0.10;99.90
54272;DHT22;40184;53.362;5.216;2022-12-18T07:06:54;-0.40;99.90
54272;DHT22;40184;53.362;5.216;2022-12-18T07:09:20;0.00;99.90
54272;DHT22;40184;53.362;5.216;2022-12-18T07:11:46;0.10;99.90
54272;DHT22;40184;53.362;5.216;2022-12-18T07:14:11;0.10;99.90
54272;DHT22;40184;53.362;5.216;2022-12-18T07:16:37;0.10;99.90
54272;DHT22;40184;53.362;5.216;2022-12-18T07:19:02;-0.60;99.90
54272;DHT22;40184;53.362;5.216;2022-12-18T07:21:28;-0.60;99.90
54272;DHT22;40184;53.362;5.216;2022-12-18T07:23:54;-0.40;99.90
54272;DHT22;40184;53.362;5.216;2022-12-18T07:26:21;0.00;99.90
54272;DHT22;40184;53.362;5.216;2022-12-18T07:28:47;0.00;99.90
54272;DHT22;40184;53.362;5.216;2022-12-18T07:31:15;-0.70;99.90
54272;DHT22;40184;53.362;5.216;2022-12-18T07:33:42;-0.50;99.90
54272;DHT22;40184;53.362;5.216;2022-12-18T07:36:08;-0.50;99.90
54272;DHT22;40184;53.362;5.216;2022-12-18T07:38:35;-0.70;99.90
54272;DHT22;40184;53.362;5.216;2022-12-18T07:41:06;-0.90;99.90
54272;DHT22;40184;53.362;5.216;2022-12-18T07:43:33;-0.60;99.90
54272;DHT22;40184;53.362;5.216;2022-12-18T07:45:59;-0.80;99.90
54272;DHT22;40184;53.362;5.216;2022-12-18T07:48:25;-0.50;99.90
54272;DHT22;40184;53.362;5.216;2022-12-18T07:50:50;-0.50;99.90
54272;DHT22;40184;53.362;5.216;2022-12-18T07:53:16;-0.80;99.90
54272;DHT22;40184;53.362;5.216;2022-12-18T07:55:42;-0.80;99.90
54272;DHT22;40184;53.362;5.216;2022-12-18T07:58:08;-0.80;99.90
54272;DHT22;40184;53.362;5.216;2022-12-18T08:00:34;-0.50;99.90
54272;DHT22;40184;53.362;5.216;2022-12-18T08:03:00;-0.70;99.90
54272;DHT22;40184;53.362;5.216;2022-12-18T08:05:26;-0.80;99.90
54272;DHT22;40184;53.362;5.216;2022-12-18T08:07:53;-0.50;99.90
54272;DHT22;40184;53.362;5.216;2022-12-18T08:10:19;-0.50;99.90
54272;DHT22;40184;53.362;5.216;2022-12-18T08:12:44;-0.90;99.90
54272;DHT22;40184;53.362;5.216;2022-12-18T08:15:10;-0.30;99.90
54272;DHT22;40184;53.362;5.216;2022-12-18T08:17:36;-0.70;99.90
54272;DHT22;40184;53.362;5.216;2022-12-18T08:20:02;-0.40;99.90
54272;DHT22;40184;53.362;5.216;2022-12-18T08:22:28;-0.50;99.90
54272;DHT22;40184;53.362;5.216;2022-12-18T08:24:53;-0.70;99.90
54272;DHT22;40184;53.362;5.216;2022-12-18T08:27:19;-0.40;99.90
54272;DHT22;40184;53.362;5.216;2022-12-18T08:29:45;-0.70;99.90
54272;DHT22;40184;53.362;5.216;2022-12-18T08:32:10;-0.50;99.90
54272;DHT22;40184;53.362;5.216;2022-12-18T08:34:37;-0.50;99.90
54272;DHT22;40184;53.362;5.216;2022-12-18T08:37:03;-1.10;99.90
54272;DHT22;40184;53.362;5.216;2022-12-18T08:39:29;-1.00;99.90
54272;DHT22;40184;53.362;5.216;2022-12-18T08:41:54;-0.70;99.90
54272;DHT22;40184;53.362;5.216;2022-12-18T08:44:38;-0.90;99.90
54272;DHT22;40184;53.362;5.216;2022-12-18T08:47:05;-0.80;99.90
54272;DHT22;40184;53.362;5.216;2022-12-18T08:49:31;-1.10;99.90
54272;DHT22;40184;53.362;5.216;2022-12-18T08:51:57;-1.00;99.90
54272;DHT22;40184;53.362;5.216;2022-12-18T08:54:23;-0.60;99.90
54272;DHT22;40184;53.362;5.216;2022-12-18T08:56:49;-1.10;99.90
54272;DHT22;40184;53.362;5.216;2022-12-18T08:59:18;-0.60;99.90
54272;DHT22;40184;53.362;5.216;2022-12-18T09:01:43;-0.80;99.90
54272;DHT22;40184;53.362;5.216;2022-12-18T09:04:10;-0.60;99.90
54272;DHT22;40184;53.362;5.216;2022-12-18T09:06:35;-0.80;99.90
54272;DHT22;40184;53.362;5.216;2022-12-18T09:09:04;-1.00;99.90
54272;DHT22;40184;53.362;5.216;2022-12-18T09:11:30;-0.70;99.90
54272;DHT22;40184;53.362;5.216;2022-12-18T09:13:57;-0.60;99.90
54272;DHT22;40184;53.362;5.216;2022-12-18T09:16:24;-1.00;99.90
54272;DHT22;40184;53.362;5.216;2022-12-18T09:18:50;-0.90;99.90
54272;DHT22;40184;53.362;5.216;2022-12-18T09:21:19;-0.60;99.90
54272;DHT22;40184;53.362;5.216;2022-12-18T09:23:49;-0.80;99.90
54272;DHT22;40184;53.362;5.216;2022-12-18T09:26:15;-0.80;99.90
54272;DHT22;40184;53.362;5.216;2022-12-18T09:28:40;-0.70;99.90
54272;DHT22;40184;53.362;5.216;2022-12-18T09:31:07;-0.60;99.90
54272;DHT22;40184;53.362;5.216;2022-12-18T09:33:35;-0.90;99.90
54272;DHT22;40184;53.362;5.216;2022-12-18T09:36:02;-0.20;99.90
54272;DHT22;40184;53.362;5.216;2022-12-18T09:38:28;-0.30;99.90
54272;DHT22;40184;53.362;5.216;2022-12-18T09:40:59;-0.10;99.90
54272;DHT22;40184;53.362;5.216;2022-12-18T09:43:40;-0.10;99.90
54272;DHT22;40184;53.362;5.216;2022-12-18T09:46:10;0.00;99.90
54272;DHT22;40184;53.362;5.216;2022-12-18T09:48:44;-0.20;99.90
54272;DHT22;40184;53.362;5.216;2022-12-18T09:51:21;-0.10;99.90
54272;DHT22;40184;53.362;5.216;2022-12-18T09:53:57;-0.30;99.90
54272;DHT22;40184;53.362;5.216;2022-12-18T09:56:25;-0.50;99.90
54272;DHT22;40184;53.362;5.216;2022-12-18T09:58:58;-0.20;99.90
54272;DHT22;40184;53.362;5.216;2022-12-18T10:01:25;-0.50;99.90
54272;DHT22;40184;53.362;5.216;2022-12-18T10:03:52;-0.60;99.90
54272;DHT22;40184;53.362;5.216;2022-12-18T10:09:01;-0.30;99.90
54272;DHT22;40184;53.362;5.216;2022-12-18T10:22:10;-0.60;99.90
54272;DHT22;40184;53.362;5.216;2022-12-18T10:27:14;-0.50;99.90
54272;DHT22;40184;53.362;5.216;2022-12-18T10:29:42;0.00;99.90
54272;DHT22;40184;53.362;5.216;2022-12-18T10:32:14;-0.10;99.90
54272;DHT22;40184;53.362;5.216;2022-12-18T10:34:41;-0.60;99.90
54272;DHT22;40184;53.362;5.216;2022-12-18T10:37:13;-0.30;99.90
54272;DHT22;40184;53.362;5.216;2022-12-18T10:39:40;0.00;99.90
54272;DHT22;40184;53.362;5.216;2022-12-18T10:42:14;-0.10;99.90
54272;DHT22;40184;53.362;5.216;2022-12-18T10:44:41;-0.20;99.90
54272;DHT22;40184;53.362;5.216;2022-12-18T10:47:12;-0.50;99.90
54272;DHT22;40184;53.362;5.216;2022-12-18T10:49:46;-0.30;99.90
54272;DHT22;40184;53.362;5.216;2022-12-18T10:52:19;0.10;99.90
54272;DHT22;40184;53.362;5.216;2022-12-18T10:54:54;-0.20;99.90
54272;DHT22;40184;53.362;5.216;2022-12-18T10:57:38;-0.10;99.90
54272;DHT22;40184;53.362;5.216;2022-12-18T11:00:26;-0.10;99.90
54272;DHT22;40184;53.362;5.216;2022-12-18T11:02:53;0.20;99.90
54272;DHT22;40184;53.362;5.216;2022-12-18T11:05:41;-0.20;99.90
54272;DHT22;40184;53.362;5.216;2022-12-18T11:08:19;0.00;99.90
54272;DHT22;40184;53.362;5.216;2022-12-18T11:10:46;0.20;99.90
54272;DHT22;40184;53.362;5.216;2022-12-18T11:13:18;0.30;99.90
54272;DHT22;40184;53.362;5.216;2022-12-18T11:15:45;0.40;99.90
54272;DHT22;40184;53.362;5.216;2022-12-18T11:18:22;0.40;99.90
54272;DHT22;40184;53.362;5.216;2022-12-18T11:21:06;-0.20;99.90
54272;DHT22;40184;53.362;5.216;2022-12-18T11:23:33;-0.10;99.90
54272;DHT22;40184;53.362;5.216;2022-12-18T11:26:02;0.30;99.90
54272;DHT22;40184;53.362;5.216;2022-12-18T11:28:38;0.20;99.90
54272;DHT22;40184;53.362;5.216;2022-12-18T11:31:27;0.10;99.90
54272;DHT22;40184;53.362;5.216;2022-12-18T11:36:40;0.30;99.90
54272;DHT22;40184;53.362;5.216;2022-12-18T11:42:04;0.20;99.90
54272;DHT22;40184;53.362;5.216;2022-12-18T11:47:34;0.00;99.90
54272;DHT22;40184;53.362;5.216;2022-12-18T11:50:11;-0.10;99.90
54272;DHT22;40184;53.362;5.216;2022-12-18T11:52:39;0.00;99.90
54272;DHT22;40184;53.362;5.216;2022-12-18T11:55:15;0.10;99.90
54272;DHT22;40184;53.362;5.216;2022-12-18T11:57:49;0.30;99.90
54272;DHT22;40184;53.362;5.216;2022-12-18T12:00:18;0.20;99.90
54272;DHT22;40184;53.362;5.216;2022-12-18T12:05:44;0.50;99.90
54272;DHT22;40184;53.362;5.216;2022-12-18T12:08:23;0.20;99.90
54272;DHT22;40184;53.362;5.216;2022-12-18T12:13:45;0.10;99.90
54272;DHT22;40184;53.362;5.216;2022-12-18T12:16:28;0.10;99.90
54272;DHT22;40184;53.362;5.216;2022-12-18T12:25:46;0.20;99.90
54272;DHT22;40184;53.362;5.216;2022-12-18T12:30:35;0.60;99.90
54272;DHT22;40184;53.362;5.216;2022-12-18T12:33:39;0.60;99.90
54272;DHT22;40184;53.362;5.216;2022-12-18T12:36:16;0.40;99.90
54272;DHT22;40184;53.362;5.216;2022-12-18T12:38:48;0.80;99.90
54272;DHT22;40184;53.362;5.216;2022-12-18T12:41:20;0.50;99.90
54272;DHT22;40184;53.362;5.216;2022-12-18T12:44:09;0.60;99.90
54272;DHT22;40184;53.362;5.216;2022-12-18T12:46:39;0.80;99.90
54272;DHT22;40184;53.362;5.216;2022-12-18T12:49:18;0.20;99.90
54272;DHT22;40184;53.362;5.216;2022-12-18T12:51:49;0.30;99.90
54272;DHT22;40184;53.362;5.216;2022-12-18T12:54:23;0.80;99.90
54272;DHT22;40184;53.362;5.216;2022-12-18T13:02:27;0.30;99.90
54272;DHT22;40184;53.362;5.216;2022-12-18T13:07:39;0.70;99.90
54272;DHT22;40184;53.362;5.216;2022-12-18T13:15:43;0.10;99.90
54272;DHT22;40184;53.362;5.216;2022-12-18T13:25:53;0.50;99.90
54272;DHT22;40184;53.362;5.216;2022-12-18T13:34:17;0.80;99.90
54272;DHT22;40184;53.362;5.216;2022-12-18T13:36:43;0.50;99.90
54272;DHT22;40184;53.362;5.216;2022-12-18T13:41:45;0.70;99.90
54272;DHT22;40184;53.362;5.216;2022-12-18T13:46:50;0.50;99.90
54272;DHT22;40184;53.362;5.216;2022-12-18T13:52:01;0.50;99.90
54272;DHT22;40184;53.362;5.216;2022-12-18T13:54:35;0.60;99.90
54272;DHT22;40184;53.362;5.216;2022-12-18T13:57:03;0.70;99.90
54272;DHT22;40184;53.362;5.216;2022-12-18T13:59:35;0.40;99.90
54272;DHT22;40184;53.362;5.216;2022-12-18T14:02:14;0.70;99.90
54272;DHT22;40184;53.362;5.216;2022-12-18T14:04:40;0.40;99.90
54272;DHT22;40184;53.362;5.216;2022-12-18T14:07:12;0.80;99.90
54272;DHT22;40184;53.362;5.216;2022-12-18T14:09:47;0.50;99.90
54272;DHT22;40184;53.362;5.216;2022-12-18T14:12:24;0.80;99.90
54272;DHT22;40184;53.362;5.216;2022-12-18T14:15:35;0.90;99.90
54272;DHT22;40184;53.362;5.216;2022-12-18T14:20:41;0.50;99.90
54272;DHT22;40184;53.362;5.216;2022-12-18T14:23:33;0.80;99.90
54272;DHT22;40184;53.362;5.216;2022-12-18T14:26:00;0.60;99.90
54272;DHT22;40184;53.362;5.216;2022-12-18T14:28:26;0.50;99.90
54272;DHT22;40184;53.362;5.216;2022-12-18T14:30:53;0.60;99.90
54272;DHT22;40184;53.362;5.216;2022-12-18T14:33:21;0.60;99.90
54272;DHT22;40184;53.362;5.216;2022-12-18T14:36:00;0.50;99.90
54272;DHT22;40184;53.362;5.216;2022-12-18T14:38:37;0.20;99.90
54272;DHT22;40184;53.362;5.216;2022-12-18T14:41:04;0.50;99.90
54272;DHT22;40184;53.362;5.216;2022-12-18T14:43:35;0.50;99.90
54272;DHT22;40184;53.362;5.216;2022-12-18T14:46:06;0.70;99.90
54272;DHT22;40184;53.362;5.216;2022-12-18T14:48:48;0.70;99.90
54272;DHT22;40184;53.362;5.216;2022-12-18T14:51:22;0.30;99.90
54272;DHT22;40184;53.362;5.216;2022-12-18T14:53:56;0.80;99.90
54272;DHT22;40184;53.362;5.216;2022-12-18T14:56:26;0.30;99.90
54272;DHT22;40184;53.362;5.216;2022-12-18T14:59:12;0.50;99.90
54272;DHT22;40184;53.362;5.216;2022-12-18T15:04:33;0.80;99.90
54272;DHT22;40184;53.362;5.216;2022-12-18T15:10:00;0.60;99.90
54272;DHT22;40184;53.362;5.216;2022-12-18T15:12:34;0.50;99.90
54272;DHT22;40184;53.362;5.216;2022-12-18T15:15:00;0.40;99.90
54272;DHT22;40184;53.362;5.216;2022-12-18T15:17:26;0.20;99.90
54272;DHT22;40184;53.362;5.216;2022-12-18T15:19:58;0.70;99.90
54272;DHT22;40184;53.362;5.216;2022-12-18T15:22:35;0.40;99.90
54272;DHT22;40184;53.362;5.216;2022-12-18T15:25:01;0.40;99.90
54272;DHT22;40184;53.362;5.216;2022-12-18T15:27:33;0.30;99.90
54272;DHT22;40184;53.362;5.216;2022-12-18T15:32:36;0.30;99.90
54272;DHT22;40184;53.362;5.216;2022-12-18T15:35:23;0.90;99.90
54272;DHT22;40184;53.362;5.216;2022-12-18T15:37:51;0.20;99.90
54272;DHT22;40184;53.362;5.216;2022-12-18T15:40:22;0.80;99.90
54272;DHT22;40184;53.362;5.216;2022-12-18T15:42:52;0.60;99.90
54272;DHT22;40184;53.362;5.216;2022-12-18T15:45:37;0.80;99.90
54272;DHT22;40184;53.362;5.216;2022-12-18T15:48:18;0.80;99.90
54272;DHT22;40184;53.362;5.216;2022-12-18T15:50:44;0.40;99.90
54272;DHT22;40184;53.362;5.216;2022-12-18T15:53:10;0.70;99.90
54272;DHT22;40184;53.362;5.216;2022-12-18T15:55:36;0.90;99.90
54272;DHT22;40184;53.362;5.216;2022-12-18T15:58:21;0.90;99.90
54272;DHT22;40184;53.362;5.216;2022-12-18T16:00:47;0.70;99.90
54272;DHT22;40184;53.362;5.216;2022-12-18T16:03:12;0.50;99.90
54272;DHT22;40184;53.362;5.216;2022-12-18T16:05:38;0.90;99.90
54272;DHT22;40184;53.362;5.216;2022-12-18T16:08:04;0.40;99.90
54272;DHT22;40184;53.362;5.216;2022-12-18T16:10:29;0.40;99.90
54272;DHT22;40184;53.362;5.216;2022-12-18T16:12:55;1.00;99.90
54272;DHT22;40184;53.362;5.216;2022-12-18T16:15:21;0.40;99.90
54272;DHT22;40184;53.362;5.216;2022-12-18T16:17:47;0.40;99.90
54272;DHT22;40184;53.362;5.216;2022-12-18T16:20:16;0.80;99.90
54272;DHT22;40184;53.362;5.216;2022-12-18T16:22:43;0.70;99.90
54272;DHT22;40184;53.362;5.216;2022-12-18T16:25:23;0.50;99.90
54272;DHT22;40184;53.362;5.216;2022-12-18T16:27:50;1.00;99.90
54272;DHT22;40184;53.362;5.216;2022-12-18T16:30:21;1.00;99.90
54272;DHT22;40184;53.362;5.216;2022-12-18T16:32:47;1.10;99.90
54272;DHT22;40184;53.362;5.216;2022-12-18T16:35:14;0.50;99.90
54272;DHT22;40184;53.362;5.216;2022-12-18T16:37:40;0.50;99.90
54272;DHT22;40184;53.362;5.216;2022-12-18T16:40:08;1.10;99.90
54272;DHT22;40184;53.362;5.216;2022-12-18T16:42:35;0.60;99.90
54272;DHT22;40184;53.362;5.216;2022-12-18T16:45:02;0.90;99.90
54272;DHT22;40184;53.362;5.216;2022-12-18T16:47:28;1.00;99.90
54272;DHT22;40184;53.362;5.216;2022-12-18T16:49:54;1.00;99.90
54272;DHT22;40184;53.362;5.216;2022-12-18T16:52:21;0.60;99.90
54272;DHT22;40184;53.362;5.216;2022-12-18T16:54:46;1.10;99.90
54272;DHT22;40184;53.362;5.216;2022-12-18T16:57:15;0.80;99.90
54272;DHT22;40184;53.362;5.216;2022-12-18T16:59:40;1.00;99.90
54272;DHT22;40184;53.362;5.216;2022-12-18T17:02:13;0.60;99.90
54272;DHT22;40184;53.362;5.216;2022-12-18T17:04:40;1.20;99.90
54272;DHT22;40184;53.362;5.216;2022-12-18T17:07:07;0.80;99.90
54272;DHT22;40184;53.362;5.216;2022-12-18T17:09:33;1.10;99.90
54272;DHT22;40184;53.362;5.216;2022-12-18T17:11:58;1.10;99.90
54272;DHT22;40184;53.362;5.216;2022-12-18T17:14:24;0.90;99.90
54272;DHT22;40184;53.362;5.216;2022-12-18T17:16:52;1.20;99.90
54272;DHT22;40184;53.362;5.216;2022-12-18T17:19:18;0.60;99.90
54272;DHT22;40184;53.362;5.216;2022-12-18T17:21:47;1.10;99.90
54272;DHT22;40184;53.362;5.216;2022-12-18T17:24:13;1.20;99.90
54272;DHT22;40184;53.362;5.216;2022-12-18T17:26:39;0.90;99.90
54272;DHT22;40184;53.362;5.216;2022-12-18T17:29:04;0.80;99.90
54272;DHT22;40184;53.362;5.216;2022-12-18T17:31:31;0.70;99.90
54272;DHT22;40184;53.362;5.216;2022-12-18T17:33:57;0.90;99.90
54272;DHT22;40184;53.362;5.216;2022-12-18T17:36:24;0.70;99.90
54272;DHT22;40184;53.362;5.216;2022-12-18T17:38:54;0.80;99.90
54272;DHT22;40184;53.362;5.216;2022-12-18T17:41:21;0.70;99.90
54272;DHT22;40184;53.362;5.216;2022-12-18T17:43:55;1.30;99.90
54272;DHT22;40184;53.362;5.216;2022-12-18T17:46:22;1.30;99.90
54272;DHT22;40184;53.362;5.216;2022-12-18T17:48:48;1.10;99.90